createdAt,value
2022-11-12T00:00:41.160Z,102069.75
2022-11-12T00:03:08.413Z,102065.06
2022-11-12T00:05:35.610Z,102063.47
2022-11-12T00:08:02.674Z,102078.63
2022-11-12T00:10:29.704Z,102063.22
2022-11-12T00:12:56.354Z,102064.94
2022-11-12T00:15:23.042Z,102059.00
2022-11-12T00:17:49.868Z,102059.28
2022-11-12T00:20:16.747Z,102060.44
2022-11-12T00:22:43.410Z,102062.16
2022-11-12T00:25:10.309Z,102058.22
2022-11-12T00:27:37.011Z,102066.84
2022-11-12T00:30:04.632Z,102049.53
2022-11-12T00:32:31.503Z,102043.72
2022-11-12T00:35:02.352Z,102050.19
2022-11-12T00:37:29.326Z,102047.50
2022-11-12T00:39:55.934Z,102046.91
2022-11-12T00:42:22.592Z,102043.81
2022-11-12T00:44:50.164Z,102056.28
2022-11-12T00:47:17.140Z,102049.19
2022-11-12T00:49:43.977Z,102038.84
2022-11-12T00:52:10.835Z,102044.56
2022-11-12T00:54:37.478Z,102040.78
2022-11-12T00:57:04.180Z,102042.75
2022-11-12T00:59:30.802Z,102044.59
2022-11-12T01:01:57.632Z,102032.63
2022-11-12T01:04:24.358Z,102031.31
2022-11-12T01:06:51.035Z,102022.75
2022-11-12T01:09:17.823Z,102023.06
2022-11-12T01:11:44.486Z,102025.41
2022-11-12T01:14:11.203Z,102017.03
2022-11-12T01:16:39.495Z,102013.59
2022-11-12T01:19:07.354Z,102005.03
2022-11-12T01:21:37.262Z,102008.66
2022-11-12T01:24:04.049Z,102004.47
2022-11-12T01:26:30.830Z,101996.53
2022-11-12T01:28:57.791Z,101995.94
2022-11-12T01:31:26.056Z,101991.59
2022-11-12T01:33:55.121Z,101989.25
2022-11-12T01:36:22.102Z,101997.78
2022-11-12T01:38:49.428Z,102000.00
2022-11-12T01:41:21.622Z,101995.94
2022-11-12T01:43:48.279Z,102002.31
2022-11-12T01:46:20.468Z,101989.44
2022-11-12T01:48:49.422Z,101998.50
2022-11-12T01:51:16.451Z,101997.44
2022-11-12T01:53:46.363Z,101995.06
2022-11-12T01:56:14.723Z,101991.97
2022-11-12T01:58:41.523Z,102002.81
2022-11-12T02:01:08.389Z,101998.38
2022-11-12T02:03:35.115Z,101998.69
2022-11-12T02:06:08.243Z,101999.28
2022-11-12T02:08:36.033Z,101998.12
2022-11-12T02:11:11.942Z,101986.84
2022-11-12T02:13:57.289Z,101979.03
2022-11-12T02:16:34.892Z,101969.53
2022-11-12T02:19:01.674Z,101976.75
2022-11-12T02:21:28.968Z,101973.75
2022-11-12T02:23:59.516Z,101969.88
2022-11-12T02:26:26.875Z,101970.72
2022-11-12T02:28:53.541Z,101960.75
2022-11-12T02:31:20.210Z,101966.38
2022-11-12T02:33:47.076Z,101973.25
2022-11-12T02:36:13.961Z,101969.22
2022-11-12T02:38:40.681Z,101978.87
2022-11-12T02:41:07.418Z,101966.03
2022-11-12T02:43:34.127Z,101973.09
2022-11-12T02:46:00.786Z,101979.69
2022-11-12T02:48:27.723Z,101972.31
2022-11-12T02:50:54.680Z,101964.88
2022-11-12T02:53:21.457Z,101969.28
2022-11-12T02:55:48.204Z,101980.03
2022-11-12T02:58:17.190Z,101967.59
2022-11-12T03:00:44.885Z,101965.75
2022-11-12T03:03:11.753Z,101968.41
2022-11-12T03:05:38.445Z,101959.13
2022-11-12T03:08:09.369Z,101954.59
2022-11-12T03:10:39.481Z,101954.97
2022-11-12T03:13:06.722Z,101944.69
2022-11-12T03:15:33.412Z,101954.03
2022-11-12T03:18:00.621Z,101941.16
2022-11-12T03:20:27.678Z,101933.84
2022-11-12T03:22:57.406Z,101937.97
2022-11-12T03:25:24.739Z,101924.97
2022-11-12T03:27:58.811Z,101920.41
2022-11-12T03:30:27.000Z,101917.22
2022-11-12T03:32:53.761Z,101920.16
2022-11-12T03:35:20.499Z,101916.03
2022-11-12T03:37:47.405Z,101928.41
2022-11-12T03:40:14.181Z,101924.87
2022-11-12T03:42:50.729Z,101915.72
2022-11-12T03:45:18.187Z,101915.13
2022-11-12T03:47:49.350Z,101907.28
2022-11-12T03:50:16.898Z,101910.69
2022-11-12T03:52:48.170Z,101915.78
2022-11-12T03:55:20.153Z,101912.97
2022-11-12T03:57:53.262Z,101910.56
2022-11-12T04:00:20.893Z,101899.94
2022-11-12T04:02:47.712Z,101902.34
2022-11-12T04:05:35.664Z,101895.59
2022-11-12T04:08:27.501Z,101898.06
2022-11-12T04:10:55.035Z,101891.59
2022-11-12T04:13:28.009Z,101893.94
2022-11-12T04:16:23.885Z,101898.91
2022-11-12T04:19:12.430Z,101904.37
2022-11-12T04:21:56.983Z,101909.56
2022-11-12T04:24:49.633Z,101904.37
2022-11-12T04:27:23.883Z,101895.91
2022-11-12T04:30:10.116Z,101896.88
2022-11-12T04:32:38.293Z,101894.69
2022-11-12T04:35:06.305Z,101889.09
2022-11-12T04:37:52.002Z,101881.91
2022-11-12T04:40:37.650Z,101891.44
2022-11-12T04:43:24.074Z,101879.84
2022-11-12T04:45:52.739Z,101883.53
2022-11-12T04:48:20.904Z,101881.09
2022-11-12T04:50:50.868Z,101888.38
2022-11-12T04:53:17.786Z,101893.12
2022-11-12T04:55:45.293Z,101888.28
2022-11-12T04:58:12.263Z,101891.06
2022-11-12T05:00:39.154Z,101884.84
2022-11-12T05:03:06.033Z,101883.34
2022-11-12T05:05:34.393Z,101885.19
2022-11-12T05:08:03.525Z,101878.16
2022-11-12T05:10:32.106Z,101879.50
2022-11-12T05:12:58.810Z,101891.44
2022-11-12T05:15:26.231Z,101883.00
2022-11-12T05:17:53.062Z,101877.50
2022-11-12T05:20:19.812Z,101881.53
2022-11-12T05:23:04.491Z,101876.78
2022-11-12T05:25:33.624Z,101871.94
2022-11-12T05:28:00.549Z,101871.78
2022-11-12T05:30:27.183Z,101873.91
2022-11-12T05:33:01.084Z,101878.91
2022-11-12T05:35:28.343Z,101884.66
2022-11-12T05:37:55.121Z,101883.38
2022-11-12T05:40:22.162Z,101888.09
2022-11-12T05:42:49.690Z,101888.66
2022-11-12T05:45:17.033Z,101895.88
2022-11-12T05:47:43.754Z,101906.34
2022-11-12T05:50:11.793Z,101907.19
2022-11-12T05:52:38.836Z,101908.72
2022-11-12T05:55:06.371Z,101917.78
2022-11-12T05:57:33.143Z,101911.25
2022-11-12T06:00:00.046Z,101917.13
2022-11-12T06:02:28.309Z,101922.34
2022-11-12T06:04:55.259Z,101926.00
2022-11-12T06:07:22.503Z,101934.53
2022-11-12T06:09:49.707Z,101937.53
2022-11-12T06:12:17.020Z,101934.06
2022-11-12T06:14:43.902Z,101947.47
2022-11-12T06:17:19.493Z,101945.78
2022-11-12T06:19:57.230Z,101955.84
2022-11-12T06:22:24.221Z,101962.16
2022-11-12T06:24:55.901Z,101961.84
2022-11-12T06:27:24.311Z,101969.78
2022-11-12T06:29:51.532Z,101970.69
2022-11-12T06:32:21.452Z,101973.94
2022-11-12T06:34:54.094Z,101971.94
2022-11-12T06:37:23.341Z,101970.72
2022-11-12T06:40:00.898Z,101969.47
2022-11-12T06:42:47.706Z,101966.75
2022-11-12T06:45:15.633Z,101964.16
2022-11-12T06:47:44.612Z,101958.25
2022-11-12T06:50:29.323Z,101963.50
2022-11-12T06:53:16.143Z,101959.59
2022-11-12T06:56:04.103Z,101964.66
2022-11-12T06:58:31.954Z,101971.06
2022-11-12T07:01:07.065Z,101959.75
2022-11-12T07:03:38.512Z,101962.88
2022-11-12T07:06:06.103Z,101957.72
2022-11-12T07:08:33.188Z,101968.50
2022-11-12T07:11:00.336Z,101963.19
2022-11-12T07:13:27.398Z,101967.81
2022-11-12T07:15:56.715Z,101964.22
2022-11-12T07:18:23.538Z,101968.72
2022-11-12T07:20:50.365Z,101974.03
2022-11-12T07:23:17.344Z,101967.88
2022-11-12T07:25:44.123Z,101959.78
2022-11-12T07:28:15.013Z,101956.91
2022-11-12T07:30:41.953Z,101958.31
2022-11-12T07:33:08.903Z,101964.16
2022-11-12T07:35:35.796Z,101947.38
2022-11-12T07:38:03.002Z,101948.81
2022-11-12T07:40:29.661Z,101958.56
2022-11-12T07:42:56.323Z,101963.72
2022-11-12T07:45:22.951Z,101960.09
2022-11-12T07:47:49.663Z,101957.78
2022-11-12T07:50:16.362Z,101954.28
2022-11-12T07:52:43.033Z,101955.91
2022-11-12T07:55:09.696Z,101958.31
2022-11-12T07:57:36.643Z,101961.63
2022-11-12T08:00:04.233Z,101964.78
2022-11-12T08:02:31.562Z,101965.75
2022-11-12T08:04:58.284Z,101969.25
2022-11-12T08:07:25.172Z,101971.19
2022-11-12T08:09:52.144Z,101964.91
2022-11-12T08:12:18.859Z,101962.28
2022-11-12T08:14:45.601Z,101958.06
2022-11-12T08:17:12.241Z,101963.38
2022-11-12T08:19:38.893Z,101965.16
2022-11-12T08:22:05.631Z,101966.06
2022-11-12T08:24:32.343Z,101967.84
2022-11-12T08:26:58.971Z,101977.56
2022-11-12T08:29:25.646Z,101982.63
2022-11-12T08:31:52.353Z,101982.66
2022-11-12T08:34:22.642Z,101987.06
2022-11-12T08:36:49.623Z,101978.41
2022-11-12T08:39:16.233Z,101972.72
2022-11-12T08:41:42.950Z,101977.22
2022-11-12T08:44:09.994Z,101976.37
2022-11-12T08:46:36.684Z,101985.28
2022-11-12T08:49:03.395Z,101986.97
2022-11-12T08:51:30.101Z,101989.66
2022-11-12T08:53:56.807Z,101994.16
2022-11-12T08:56:23.462Z,101992.53
2022-11-12T08:58:50.154Z,101992.56
2022-11-12T09:01:16.903Z,101991.59
2022-11-12T09:03:43.854Z,101995.06
2022-11-12T09:06:10.593Z,102000.38
2022-11-12T09:08:37.487Z,101999.41
2022-11-12T09:11:04.602Z,102000.41
2022-11-12T09:13:31.511Z,102009.28
2022-11-12T09:16:05.490Z,102018.81
2022-11-12T09:18:32.694Z,102011.78
2022-11-12T09:21:00.452Z,102018.06
2022-11-12T09:23:27.114Z,102014.50
2022-11-12T09:25:55.214Z,101996.59
2022-11-12T09:28:21.883Z,102002.19
2022-11-12T09:30:49.703Z,101994.69
2022-11-12T09:33:26.474Z,101992.75
2022-11-12T09:35:53.664Z,101979.78
2022-11-12T09:38:20.484Z,101984.88
2022-11-12T09:40:53.044Z,101988.88
2022-11-12T09:43:34.665Z,101991.09
2022-11-12T09:46:26.562Z,101980.06
2022-11-12T09:48:58.287Z,101987.00
2022-11-12T09:51:30.903Z,101994.44
2022-11-12T09:54:03.108Z,101989.91
2022-11-12T09:56:30.464Z,101990.00
2022-11-12T09:58:57.311Z,101980.66
2022-11-12T10:01:44.286Z,101983.06
2022-11-12T10:04:29.823Z,101986.41
2022-11-12T10:07:05.461Z,101986.66
2022-11-12T10:09:41.556Z,101978.44
2022-11-12T10:12:29.953Z,101991.19
2022-11-12T10:14:59.615Z,101981.09
2022-11-12T10:17:32.403Z,101988.16
2022-11-12T10:20:18.719Z,101974.31
2022-11-12T10:22:53.736Z,101969.41
2022-11-12T10:25:21.884Z,101951.19
2022-11-12T10:27:49.628Z,101947.53
2022-11-12T10:30:20.835Z,101960.66
2022-11-12T10:32:48.604Z,101954.75
2022-11-12T10:35:19.685Z,101951.63
2022-11-12T10:38:04.813Z,101959.00
2022-11-12T10:40:39.553Z,101942.41
2022-11-12T10:43:18.083Z,101949.16
2022-11-12T10:45:45.665Z,101948.47
2022-11-12T10:48:29.138Z,101946.94
2022-11-12T10:50:56.234Z,101949.69
2022-11-12T10:53:34.434Z,101935.69
2022-11-12T10:56:02.734Z,101941.47
2022-11-12T10:58:29.752Z,101938.78
2022-11-12T11:01:13.443Z,101942.41
2022-11-12T11:03:55.323Z,101945.87
2022-11-12T11:06:24.883Z,101948.22
2022-11-12T11:08:52.560Z,101954.56
2022-11-12T11:11:24.918Z,101961.78
2022-11-12T11:13:55.825Z,101971.47
2022-11-12T11:16:24.436Z,101980.94
2022-11-12T11:18:53.555Z,101981.47
2022-11-12T11:21:23.433Z,101979.06
2022-11-12T11:23:50.255Z,101978.03
2022-11-12T11:26:37.123Z,101986.37
2022-11-12T11:29:08.121Z,101990.78
2022-11-12T11:31:48.104Z,101989.91
2022-11-12T11:34:23.753Z,101989.91
2022-11-12T11:37:00.008Z,101995.19
2022-11-12T11:39:26.821Z,101987.25
2022-11-12T11:42:09.022Z,101986.37
2022-11-12T11:44:36.063Z,101976.69
2022-11-12T11:47:05.501Z,101968.72
2022-11-12T11:49:35.146Z,101968.66
2022-11-12T11:52:05.014Z,101959.91
2022-11-12T11:54:34.715Z,101960.78
2022-11-12T11:57:04.505Z,101967.81
2022-11-12T11:59:40.472Z,101971.31
2022-11-12T12:02:13.002Z,101962.37
2022-11-12T12:04:42.941Z,101962.37
2022-11-12T12:07:15.648Z,101952.75
2022-11-12T12:09:45.374Z,101959.03
2022-11-12T12:12:15.095Z,101949.31
2022-11-12T12:14:44.963Z,101952.78
2022-11-12T12:17:33.480Z,101944.00
2022-11-12T12:20:00.158Z,101946.69
2022-11-12T12:22:38.846Z,101940.50
2022-11-12T12:25:15.954Z,101945.81
2022-11-12T12:27:52.894Z,101944.03
2022-11-12T12:30:21.563Z,101944.91
2022-11-12T12:32:51.025Z,101958.06
2022-11-12T12:35:23.894Z,101956.31
2022-11-12T12:38:06.894Z,101950.22
2022-11-12T12:40:52.743Z,101947.53
2022-11-12T12:43:26.312Z,101945.75
2022-11-12T12:45:53.385Z,101945.81
2022-11-12T12:48:27.782Z,101932.53
2022-11-12T12:50:54.845Z,101943.16
2022-11-12T12:53:27.602Z,101933.38
2022-11-12T12:56:02.936Z,101927.06
2022-11-12T12:58:29.948Z,101929.72
2022-11-12T13:01:05.144Z,101921.56
2022-11-12T13:03:44.244Z,101923.97
2022-11-12T13:06:17.101Z,101919.62
2022-11-12T13:08:43.916Z,101914.09
2022-11-12T13:11:11.232Z,101911.22
2022-11-12T13:13:38.843Z,101911.16
2022-11-12T13:16:05.677Z,101922.78
2022-11-12T13:18:38.593Z,101918.56
2022-11-12T13:21:18.736Z,101910.97
2022-11-12T13:24:07.080Z,101916.75
2022-11-12T13:26:40.201Z,101911.66
2022-11-12T13:29:22.543Z,101914.38
2022-11-12T13:31:49.703Z,101915.16
2022-11-12T13:34:34.364Z,101910.72
2022-11-12T13:37:03.243Z,101909.00
2022-11-12T13:39:32.684Z,101911.81
2022-11-12T13:42:18.044Z,101904.53
2022-11-12T13:44:45.141Z,101907.19
2022-11-12T13:47:16.147Z,101906.16
2022-11-12T13:49:44.084Z,101903.53
2022-11-12T13:52:13.304Z,101895.31
2022-11-12T13:54:40.097Z,101898.84
2022-11-12T13:57:33.539Z,101896.97
2022-11-12T14:00:10.475Z,101898.03
2022-11-12T14:02:41.618Z,101898.75
2022-11-12T14:05:23.452Z,101891.59
2022-11-12T14:08:06.152Z,101890.91
2022-11-12T14:11:05.657Z,101889.91
2022-11-12T14:13:44.513Z,101889.78
2022-11-12T14:16:11.405Z,101897.91
2022-11-12T14:18:38.157Z,101893.53
2022-11-12T14:21:06.306Z,101890.81
2022-11-12T14:23:37.524Z,101889.88
2022-11-12T14:26:04.386Z,101886.41
2022-11-12T14:28:32.514Z,101890.91
2022-11-12T14:31:00.089Z,101888.28
2022-11-12T14:33:28.027Z,101891.13
2022-11-12T14:35:59.904Z,101892.03
2022-11-12T14:38:29.796Z,101890.03
2022-11-12T14:41:05.361Z,101892.34
2022-11-12T14:43:32.210Z,101893.50
2022-11-12T14:46:00.208Z,101886.34
2022-11-12T14:48:27.343Z,101885.38
2022-11-12T14:51:06.545Z,101887.41
2022-11-12T14:53:39.323Z,101892.88
2022-11-12T14:56:07.874Z,101908.03
2022-11-12T14:58:35.231Z,101905.72
2022-11-12T15:01:59.339Z,101906.69
2022-11-12T15:04:11.104Z,101896.94
2022-11-12T15:06:40.456Z,101903.25
2022-11-12T15:09:07.593Z,101905.44
2022-11-12T15:11:44.233Z,101906.34
2022-11-12T15:14:13.947Z,101913.66
2022-11-12T15:16:43.335Z,101909.41
2022-11-12T15:19:29.267Z,101915.47
2022-11-12T15:21:58.734Z,101915.66
2022-11-12T15:24:26.255Z,101925.50
2022-11-12T15:26:54.446Z,101925.44
2022-11-12T15:29:23.903Z,101922.63
2022-11-12T15:31:51.978Z,101929.78
2022-11-12T15:34:42.093Z,101942.00
2022-11-12T15:37:09.098Z,101934.09
2022-11-12T15:39:40.836Z,101939.09
2022-11-12T15:42:26.404Z,101931.09
2022-11-12T15:44:57.935Z,101933.75
2022-11-12T15:47:24.574Z,101928.44
2022-11-12T15:49:52.633Z,101927.38
2022-11-12T15:52:19.638Z,101929.84
2022-11-12T15:54:46.475Z,101937.88
2022-11-12T15:57:15.293Z,101941.94
2022-11-12T15:59:42.468Z,101936.59
2022-11-12T16:02:15.392Z,101934.78
2022-11-12T16:04:42.284Z,101943.00
2022-11-12T16:07:10.043Z,101929.31
2022-11-12T16:09:37.554Z,101935.31
2022-11-12T16:12:04.630Z,101928.72
2022-11-12T16:14:31.486Z,101932.28
2022-11-12T16:16:58.265Z,101928.59
2022-11-12T16:19:24.973Z,101937.53
2022-11-12T16:21:51.714Z,101934.13
2022-11-12T16:24:18.554Z,101942.94
2022-11-12T16:26:46.351Z,101943.72
2022-11-12T16:29:13.931Z,101942.34
2022-11-12T16:31:41.306Z,101956.72
2022-11-12T16:34:08.066Z,101950.16
2022-11-12T16:36:34.815Z,101944.56
2022-11-12T16:39:01.718Z,101951.75
2022-11-12T16:41:29.057Z,101947.28
2022-11-12T16:43:55.763Z,101950.22
2022-11-12T16:46:28.447Z,101953.13
2022-11-12T16:48:56.274Z,101954.59
2022-11-12T16:51:23.392Z,101958.69
2022-11-12T16:53:50.122Z,101955.78
2022-11-12T16:56:18.150Z,101955.59
2022-11-12T16:58:45.685Z,101953.94
2022-11-12T17:01:14.312Z,101965.22
2022-11-12T17:03:41.391Z,101955.84
2022-11-12T17:06:08.492Z,101957.94
2022-11-12T17:08:36.714Z,101949.03
2022-11-12T17:11:07.494Z,101949.97
2022-11-12T17:13:34.399Z,101954.50
2022-11-12T17:16:01.468Z,101959.09
2022-11-12T17:18:28.165Z,101956.72
2022-11-12T17:20:54.963Z,101954.75
2022-11-12T17:23:23.809Z,101962.81
2022-11-12T17:26:00.046Z,101950.91
2022-11-12T17:28:28.327Z,101950.22
2022-11-12T17:31:24.291Z,101953.53
2022-11-12T17:33:53.082Z,101955.53
2022-11-12T17:36:24.061Z,101945.75
2022-11-12T17:38:54.544Z,101957.31
2022-11-12T17:41:22.451Z,101956.44
2022-11-12T17:43:53.723Z,101958.81
2022-11-12T17:46:20.424Z,101955.09
2022-11-12T17:48:47.262Z,101951.84
2022-11-12T17:51:14.996Z,101953.94
2022-11-12T17:53:42.152Z,101954.94
2022-11-12T17:56:10.534Z,101959.47
2022-11-12T17:58:37.301Z,101957.78
2022-11-12T18:01:08.624Z,101966.41
2022-11-12T18:03:37.943Z,101960.19
2022-11-12T18:06:04.736Z,101962.75
2022-11-12T18:08:32.797Z,101954.78
2022-11-12T18:10:59.503Z,101961.78
2022-11-12T18:13:28.260Z,101955.06
2022-11-12T18:15:55.123Z,101959.75
2022-11-12T18:18:23.116Z,101957.47
2022-11-12T18:20:50.683Z,101962.31
2022-11-12T18:23:19.222Z,101959.06
2022-11-12T18:25:46.083Z,101960.84
2022-11-12T18:28:12.891Z,101952.28
2022-11-12T18:30:39.802Z,101955.75
2022-11-12T18:33:07.013Z,101956.63
2022-11-12T18:35:33.660Z,101961.94
2022-11-12T18:38:02.090Z,101961.06
2022-11-12T18:40:29.621Z,101954.59
2022-11-12T18:42:56.337Z,101951.16
2022-11-12T18:45:23.043Z,101957.00
2022-11-12T18:47:49.805Z,101958.44
2022-11-12T18:50:20.746Z,101944.69
2022-11-12T18:52:48.865Z,101946.41
2022-11-12T18:55:19.651Z,101953.53
2022-11-12T18:57:48.760Z,101957.00
2022-11-12T19:00:16.955Z,101954.72
2022-11-12T19:02:44.096Z,101952.97
2022-11-12T19:05:10.816Z,101952.81
2022-11-12T19:07:37.549Z,101950.69
2022-11-12T19:10:14.766Z,101960.13
2022-11-12T19:12:42.675Z,101957.91
2022-11-12T19:15:09.752Z,101956.97
2022-11-12T19:17:36.607Z,101956.25
2022-11-12T19:20:04.622Z,101955.28
2022-11-12T19:22:31.419Z,101956.34
2022-11-12T19:24:58.145Z,101958.75
2022-11-12T19:27:24.974Z,101962.44
2022-11-12T19:29:51.672Z,101963.97
2022-11-12T19:32:18.641Z,101964.94
2022-11-12T19:34:45.383Z,101960.00
2022-11-12T19:37:32.395Z,101962.66
2022-11-12T19:40:01.473Z,101962.28
2022-11-12T19:42:28.483Z,101958.16
2022-11-12T19:44:55.676Z,101970.41
2022-11-12T19:47:22.425Z,101972.13
2022-11-12T19:49:49.772Z,101978.38
2022-11-12T19:52:17.432Z,101971.22
2022-11-12T19:54:46.712Z,101970.78
2022-11-12T19:57:13.424Z,101974.56
2022-11-12T19:59:40.424Z,101977.66
2022-11-12T20:02:08.434Z,101976.84
2022-11-12T20:04:35.263Z,101981.38
2022-11-12T20:07:02.165Z,101985.03
2022-11-12T20:09:29.105Z,101973.56
2022-11-12T20:11:55.859Z,101982.03
2022-11-12T20:14:22.678Z,101980.41
2022-11-12T20:16:51.098Z,101988.91
2022-11-12T20:19:18.068Z,101987.16
2022-11-12T20:21:45.564Z,101994.66
2022-11-12T20:24:12.505Z,101994.94
2022-11-12T20:26:40.596Z,101995.69
2022-11-12T20:29:15.886Z,101993.38
2022-11-12T20:31:42.561Z,101991.84
2022-11-12T20:34:11.340Z,101989.56
2022-11-12T20:36:38.071Z,101993.22
2022-11-12T20:39:05.111Z,101993.22
2022-11-12T20:41:31.964Z,102000.69
2022-11-12T20:44:00.576Z,102006.13
2022-11-12T20:46:28.702Z,102006.37
2022-11-12T20:48:55.526Z,102003.91
2022-11-12T20:51:24.991Z,102005.03
2022-11-12T20:53:58.720Z,102004.16
2022-11-12T20:56:27.262Z,102008.91
2022-11-12T20:58:54.044Z,102006.16
2022-11-12T21:01:22.145Z,102001.56
2022-11-12T21:03:49.769Z,102002.41
2022-11-12T21:06:17.958Z,102001.66
2022-11-12T21:08:45.174Z,102006.78
2022-11-12T21:11:13.872Z,102003.75
2022-11-12T21:13:42.895Z,102002.16
2022-11-12T21:16:10.191Z,101996.09
2022-11-12T21:18:37.277Z,102001.38
2022-11-12T21:21:04.360Z,101994.44
2022-11-12T21:23:31.532Z,101999.69
2022-11-12T21:26:06.988Z,102000.66
2022-11-12T21:28:38.662Z,101997.94
2022-11-12T21:31:07.076Z,101998.81
2022-11-12T21:33:33.962Z,101999.69
2022-11-12T21:36:00.698Z,102000.56
2022-11-12T21:38:28.492Z,101993.44
2022-11-12T21:41:03.207Z,101999.47
2022-11-12T21:43:30.079Z,102005.63
2022-11-12T21:45:57.154Z,102004.88
2022-11-12T21:48:27.350Z,102009.28
2022-11-12T21:50:54.293Z,102011.06
2022-11-12T21:53:22.324Z,102009.00
2022-11-12T21:55:49.357Z,102002.87
2022-11-12T21:58:17.670Z,102016.72
2022-11-12T22:00:44.738Z,102010.63
2022-11-12T22:03:11.778Z,102007.06
2022-11-12T22:05:38.804Z,102012.16
2022-11-12T22:08:05.970Z,102009.56
2022-11-12T22:10:33.812Z,102011.31
2022-11-12T22:13:31.271Z,102011.22
2022-11-12T22:15:50.884Z,102006.81
2022-11-12T22:18:18.251Z,102012.09
2022-11-12T22:20:45.513Z,102001.50
2022-11-12T22:23:12.451Z,102008.59
2022-11-12T22:25:39.584Z,102003.91
2022-11-12T22:28:06.811Z,102017.56
2022-11-12T22:30:34.300Z,102009.94
2022-11-12T22:33:02.190Z,102004.41
2022-11-12T22:35:30.271Z,102003.28
2022-11-12T22:37:57.232Z,102009.31
2022-11-12T22:40:24.260Z,102009.34
2022-11-12T22:42:51.050Z,102001.34
2022-11-12T22:45:18.484Z,102010.13
2022-11-12T22:47:49.006Z,102013.50
2022-11-12T22:50:16.015Z,102009.25
2022-11-12T22:52:50.011Z,102010.09
2022-11-12T22:55:17.075Z,102000.66
2022-11-12T22:57:44.318Z,102007.09
2022-11-12T23:00:12.107Z,102010.06
2022-11-12T23:02:44.752Z,102000.75
2022-11-12T23:05:15.930Z,102009.78
2022-11-12T23:07:42.879Z,101996.78
2022-11-12T23:10:09.991Z,102003.63
2022-11-12T23:12:37.418Z,102005.56
2022-11-12T23:15:04.443Z,102009.00
2022-11-12T23:17:31.631Z,102004.94
2022-11-12T23:19:59.514Z,102002.75
2022-11-12T23:22:26.353Z,101993.34
2022-11-12T23:25:13.096Z,101999.25
2022-11-12T23:27:44.713Z,102002.28
2022-11-12T23:30:20.733Z,101999.09
2022-11-12T23:32:51.890Z,101997.91
2022-11-12T23:35:18.738Z,101998.84
2022-11-12T23:37:47.950Z,101996.16
2022-11-12T23:40:15.988Z,102001.88
2022-11-12T23:42:43.017Z,101998.44
2022-11-12T23:45:10.408Z,101997.66
2022-11-12T23:47:37.670Z,101992.97
2022-11-12T23:50:04.906Z,102001.81
2022-11-12T23:52:36.500Z,101995.38
2022-11-12T23:55:05.839Z,101987.59
2022-11-12T23:57:33.462Z,101992.47
